sensor_id;sensor_type;location;lat;lon;timestamp;P1;durP1;ratioP1;P2;durP2;ratioP2
12597;SDS011;6364;53.590;9.956;2024-02-16T00:00:46;9.93;;;6.45;;
12597;SDS011;6364;53.590;9.956;2024-02-16T00:03:12;10.45;;;6.10;;
12597;SDS011;6364;53.590;9.956;2024-02-16T00:05:37;9.50;;;6.50;;
12597;SDS011;6364;53.590;9.956;2024-02-16T00:08:03;11.70;;;6.15;;
12597;SDS011;6364;53.590;9.956;2024-02-16T00:10:28;12.50;;;6.47;;
12597;SDS011;6364;53.590;9.956;2024-02-16T00:12:54;9.68;;;6.28;;
12597;SDS011;6364;53.590;9.956;2024-02-16T00:15:19;12.73;;;6.72;;
12597;SDS011;6364;53.590;9.956;2024-02-16T00:17:45;12.55;;;6.20;;
12597;SDS011;6364;53.590;9.956;2024-02-16T00:20:10;14.50;;;6.35;;
12597;SDS011;6364;53.590;9.956;2024-02-16T00:22:37;14.68;;;7.15;;
12597;SDS011;6364;53.590;9.956;2024-02-16T00:25:03;13.25;;;6.55;;
12597;SDS011;6364;53.590;9.956;2024-02-16T00:27:29;13.43;;;6.38;;
12597;SDS011;6364;53.590;9.956;2024-02-16T00:29:54;13.52;;;6.50;;
12597;SDS011;6364;53.590;9.956;2024-02-16T00:32:20;10.75;;;6.13;;
12597;SDS011;6364;53.590;9.956;2024-02-16T00:34:45;10.75;;;6.05;;
12597;SDS011;6364;53.590;9.956;2024-02-16T00:37:11;9.75;;;6.15;;
12597;SDS011;6364;53.590;9.956;2024-02-16T00:39:37;11.88;;;6.55;;
12597;SDS011;6364;53.590;9.956;2024-02-16T00:42:06;10.32;;;5.93;;
12597;SDS011;6364;53.590;9.956;2024-02-16T00:44:31;11.95;;;5.60;;
12597;SDS011;6364;53.590;9.956;2024-02-16T00:46:57;10.93;;;5.68;;
12597;SDS011;6364;53.590;9.956;2024-02-16T00:49:23;9.00;;;5.13;;
12597;SDS011;6364;53.590;9.956;2024-02-16T00:51:48;13.80;;;5.70;;
12597;SDS011;6364;53.590;9.956;2024-02-16T00:54:15;12.02;;;5.00;;
12597;SDS011;6364;53.590;9.956;2024-02-16T00:56:40;11.60;;;5.60;;
12597;SDS011;6364;53.590;9.956;2024-02-16T00:59:06;7.93;;;4.90;;
12597;SDS011;6364;53.590;9.956;2024-02-16T01:01:33;8.98;;;5.38;;
12597;SDS011;6364;53.590;9.956;2024-02-16T01:04:00;11.90;;;5.07;;
12597;SDS011;6364;53.590;9.956;2024-02-16T01:06:25;12.80;;;5.15;;
12597;SDS011;6364;53.590;9.956;2024-02-16T01:08:51;13.07;;;5.28;;
12597;SDS011;6364;53.590;9.956;2024-02-16T01:11:16;13.57;;;5.22;;
12597;SDS011;6364;53.590;9.956;2024-02-16T01:13:41;10.00;;;4.97;;
12597;SDS011;6364;53.590;9.956;2024-02-16T01:16:15;9.60;;;5.03;;
12597;SDS011;6364;53.590;9.956;2024-02-16T01:18:42;12.23;;;4.95;;
12597;SDS011;6364;53.590;9.956;2024-02-16T01:21:07;10.70;;;5.00;;
12597;SDS011;6364;53.590;9.956;2024-02-16T01:23:33;10.63;;;5.68;;
12597;SDS011;6364;53.590;9.956;2024-02-16T01:25:59;9.98;;;4.90;;
12597;SDS011;6364;53.590;9.956;2024-02-16T01:28:24;9.52;;;5.40;;
12597;SDS011;6364;53.590;9.956;2024-02-16T01:30:49;12.15;;;4.72;;
12597;SDS011;6364;53.590;9.956;2024-02-16T01:33:15;10.05;;;5.07;;
12597;SDS011;6364;53.590;9.956;2024-02-16T01:35:40;10.60;;;5.30;;
12597;SDS011;6364;53.590;9.956;2024-02-16T01:38:06;12.75;;;5.18;;
12597;SDS011;6364;53.590;9.956;2024-02-16T01:40:31;14.20;;;5.28;;
12597;SDS011;6364;53.590;9.956;2024-02-16T01:42:57;11.52;;;5.80;;
12597;SDS011;6364;53.590;9.956;2024-02-16T01:45:22;9.57;;;5.25;;
12597;SDS011;6364;53.590;9.956;2024-02-16T01:47:49;10.77;;;5.30;;
12597;SDS011;6364;53.590;9.956;2024-02-16T01:50:15;12.50;;;5.10;;
12597;SDS011;6364;53.590;9.956;2024-02-16T01:52:42;10.07;;;5.38;;
12597;SDS011;6364;53.590;9.956;2024-02-16T01:55:08;11.25;;;5.00;;
12597;SDS011;6364;53.590;9.956;2024-02-16T01:57:35;10.05;;;5.28;;
12597;SDS011;6364;53.590;9.956;2024-02-16T02:00:00;8.00;;;5.32;;
12597;SDS011;6364;53.590;9.956;2024-02-16T02:02:26;9.45;;;4.75;;
12597;SDS011;6364;53.590;9.956;2024-02-16T02:04:51;11.18;;;5.93;;
12597;SDS011;6364;53.590;9.956;2024-02-16T02:07:17;10.90;;;5.55;;
12597;SDS011;6364;53.590;9.956;2024-02-16T02:09:42;11.05;;;5.32;;
12597;SDS011;6364;53.590;9.956;2024-02-16T02:12:08;13.45;;;5.00;;
12597;SDS011;6364;53.590;9.956;2024-02-16T02:14:34;8.75;;;5.18;;
12597;SDS011;6364;53.590;9.956;2024-02-16T02:16:59;9.88;;;6.13;;
12597;SDS011;6364;53.590;9.956;2024-02-16T02:19:25;11.25;;;4.90;;
12597;SDS011;6364;53.590;9.956;2024-02-16T02:21:51;10.38;;;5.47;;
12597;SDS011;6364;53.590;9.956;2024-02-16T02:24:16;15.98;;;5.22;;
12597;SDS011;6364;53.590;9.956;2024-02-16T02:26:41;9.90;;;5.18;;
12597;SDS011;6364;53.590;9.956;2024-02-16T02:29:07;10.65;;;6.15;;
12597;SDS011;6364;53.590;9.956;2024-02-16T02:31:32;10.00;;;5.88;;
12597;SDS011;6364;53.590;9.956;2024-02-16T02:33:57;11.90;;;5.35;;
12597;SDS011;6364;53.590;9.956;2024-02-16T02:36:23;10.45;;;4.93;;
12597;SDS011;6364;53.590;9.956;2024-02-16T02:38:48;10.57;;;5.60;;
12597;SDS011;6364;53.590;9.956;2024-02-16T02:41:14;8.85;;;5.57;;
12597;SDS011;6364;53.590;9.956;2024-02-16T02:43:42;13.60;;;5.07;;
12597;SDS011;6364;53.590;9.956;2024-02-16T02:46:07;9.63;;;5.00;;
12597;SDS011;6364;53.590;9.956;2024-02-16T02:48:33;8.48;;;5.00;;
12597;SDS011;6364;53.590;9.956;2024-02-16T02:50:58;9.20;;;4.70;;
12597;SDS011;6364;53.590;9.956;2024-02-16T02:53:26;11.40;;;4.97;;
12597;SDS011;6364;53.590;9.956;2024-02-16T02:55:53;7.85;;;4.50;;
12597;SDS011;6364;53.590;9.956;2024-02-16T02:58:18;10.30;;;4.80;;
12597;SDS011;6364;53.590;9.956;2024-02-16T03:00:43;11.27;;;4.35;;
12597;SDS011;6364;53.590;9.956;2024-02-16T03:03:09;6.68;;;4.55;;
12597;SDS011;6364;53.590;9.956;2024-02-16T03:05:34;7.95;;;4.45;;
12597;SDS011;6364;53.590;9.956;2024-02-16T03:08:00;11.13;;;4.43;;
12597;SDS011;6364;53.590;9.956;2024-02-16T03:10:26;9.43;;;4.50;;
12597;SDS011;6364;53.590;9.956;2024-02-16T03:12:52;10.45;;;4.43;;
12597;SDS011;6364;53.590;9.956;2024-02-16T03:15:17;12.52;;;4.47;;
12597;SDS011;6364;53.590;9.956;2024-02-16T03:17:43;8.50;;;4.15;;
12597;SDS011;6364;53.590;9.956;2024-02-16T03:20:09;8.73;;;4.90;;
12597;SDS011;6364;53.590;9.956;2024-02-16T03:22:34;7.95;;;4.50;;
12597;SDS011;6364;53.590;9.956;2024-02-16T03:25:00;12.13;;;4.25;;
12597;SDS011;6364;53.590;9.956;2024-02-16T03:27:25;8.63;;;4.50;;
12597;SDS011;6364;53.590;9.956;2024-02-16T03:29:50;11.50;;;4.45;;
12597;SDS011;6364;53.590;9.956;2024-02-16T03:32:16;11.23;;;4.22;;
12597;SDS011;6364;53.590;9.956;2024-02-16T03:34:42;9.75;;;4.00;;
12597;SDS011;6364;53.590;9.956;2024-02-16T03:37:07;8.65;;;4.55;;
12597;SDS011;6364;53.590;9.956;2024-02-16T03:39:33;10.38;;;3.88;;
12597;SDS011;6364;53.590;9.956;2024-02-16T03:41:58;7.13;;;3.95;;
12597;SDS011;6364;53.590;9.956;2024-02-16T03:44:24;10.77;;;4.35;;
12597;SDS011;6364;53.590;9.956;2024-02-16T03:46:49;6.80;;;3.80;;
12597;SDS011;6364;53.590;9.956;2024-02-16T03:49:15;8.68;;;4.80;;
12597;SDS011;6364;53.590;9.956;2024-02-16T03:51:40;10.90;;;4.43;;
12597;SDS011;6364;53.590;9.956;2024-02-16T03:54:06;8.27;;;3.88;;
12597;SDS011;6364;53.590;9.956;2024-02-16T03:56:31;9.80;;;4.38;;
12597;SDS011;6364;53.590;9.956;2024-02-16T03:58:56;7.68;;;4.68;;
12597;SDS011;6364;53.590;9.956;2024-02-16T04:01:22;9.52;;;4.13;;
12597;SDS011;6364;53.590;9.956;2024-02-16T04:03:47;8.48;;;3.92;;
12597;SDS011;6364;53.590;9.956;2024-02-16T04:06:13;10.88;;;4.18;;
12597;SDS011;6364;53.590;9.956;2024-02-16T04:08:38;9.57;;;4.32;;
12597;SDS011;6364;53.590;9.956;2024-02-16T04:11:04;8.80;;;3.88;;
12597;SDS011;6364;53.590;9.956;2024-02-16T04:13:29;8.52;;;4.00;;
12597;SDS011;6364;53.590;9.956;2024-02-16T04:15:54;9.30;;;4.25;;
12597;SDS011;6364;53.590;9.956;2024-02-16T04:18:20;8.45;;;4.22;;
12597;SDS011;6364;53.590;9.956;2024-02-16T04:20:46;10.48;;;4.22;;
12597;SDS011;6364;53.590;9.956;2024-02-16T04:23:11;5.70;;;3.53;;
12597;SDS011;6364;53.590;9.956;2024-02-16T04:25:36;7.65;;;4.00;;
12597;SDS011;6364;53.590;9.956;2024-02-16T04:28:02;12.30;;;4.47;;
12597;SDS011;6364;53.590;9.956;2024-02-16T04:30:27;11.52;;;4.00;;
12597;SDS011;6364;53.590;9.956;2024-02-16T04:32:52;8.00;;;4.00;;
12597;SDS011;6364;53.590;9.956;2024-02-16T04:35:18;10.35;;;4.25;;
12597;SDS011;6364;53.590;9.956;2024-02-16T04:37:44;8.85;;;3.78;;
12597;SDS011;6364;53.590;9.956;2024-02-16T04:40:09;7.82;;;4.10;;
12597;SDS011;6364;53.590;9.956;2024-02-16T04:42:37;7.68;;;4.07;;
12597;SDS011;6364;53.590;9.956;2024-02-16T04:45:02;7.80;;;3.80;;
12597;SDS011;6364;53.590;9.956;2024-02-16T04:47:28;9.68;;;4.40;;
12597;SDS011;6364;53.590;9.956;2024-02-16T04:49:53;8.20;;;4.30;;
12597;SDS011;6364;53.590;9.956;2024-02-16T04:52:18;10.85;;;4.05;;
12597;SDS011;6364;53.590;9.956;2024-02-16T04:54:44;11.07;;;4.18;;
12597;SDS011;6364;53.590;9.956;2024-02-16T04:57:09;10.82;;;3.83;;
12597;SDS011;6364;53.590;9.956;2024-02-16T04:59:35;6.65;;;3.55;;
12597;SDS011;6364;53.590;9.956;2024-02-16T05:02:00;5.47;;;3.92;;
12597;SDS011;6364;53.590;9.956;2024-02-16T05:04:25;12.48;;;4.10;;
12597;SDS011;6364;53.590;9.956;2024-02-16T05:06:50;6.88;;;3.80;;
12597;SDS011;6364;53.590;9.956;2024-02-16T05:09:17;8.18;;;3.60;;
12597;SDS011;6364;53.590;9.956;2024-02-16T05:11:43;9.90;;;4.00;;
12597;SDS011;6364;53.590;9.956;2024-02-16T05:14:12;9.55;;;3.70;;
12597;SDS011;6364;53.590;9.956;2024-02-16T05:16:37;9.35;;;3.72;;
12597;SDS011;6364;53.590;9.956;2024-02-16T05:19:08;7.88;;;3.70;;
12597;SDS011;6364;53.590;9.956;2024-02-16T05:21:33;8.18;;;3.00;;
12597;SDS011;6364;53.590;9.956;2024-02-16T05:24:00;8.15;;;3.35;;
12597;SDS011;6364;53.590;9.956;2024-02-16T05:26:25;10.40;;;4.22;;
12597;SDS011;6364;53.590;9.956;2024-02-16T05:28:50;6.68;;;3.53;;
12597;SDS011;6364;53.590;9.956;2024-02-16T05:31:16;8.73;;;3.75;;
12597;SDS011;6364;53.590;9.956;2024-02-16T05:33:49;7.85;;;3.63;;
12597;SDS011;6364;53.590;9.956;2024-02-16T05:36:16;6.18;;;3.20;;
12597;SDS011;6364;53.590;9.956;2024-02-16T05:38:43;8.52;;;3.60;;
12597;SDS011;6364;53.590;9.956;2024-02-16T05:41:08;8.82;;;3.42;;
12597;SDS011;6364;53.590;9.956;2024-02-16T05:43:34;9.50;;;3.80;;
12597;SDS011;6364;53.590;9.956;2024-02-16T05:45:59;10.70;;;3.72;;
12597;SDS011;6364;53.590;9.956;2024-02-16T05:48:24;7.38;;;3.67;;
12597;SDS011;6364;53.590;9.956;2024-02-16T05:50:52;7.55;;;3.35;;
12597;SDS011;6364;53.590;9.956;2024-02-16T05:53:17;7.75;;;3.60;;
12597;SDS011;6364;53.590;9.956;2024-02-16T05:55:43;9.48;;;3.92;;
12597;SDS011;6364;53.590;9.956;2024-02-16T05:58:09;13.80;;;3.83;;
12597;SDS011;6364;53.590;9.956;2024-02-16T06:00:35;9.65;;;3.78;;
12597;SDS011;6364;53.590;9.956;2024-02-16T06:03:01;8.23;;;3.83;;
12597;SDS011;6364;53.590;9.956;2024-02-16T06:05:26;6.57;;;3.47;;
12597;SDS011;6364;53.590;9.956;2024-02-16T06:07:52;9.98;;;3.42;;
12597;SDS011;6364;53.590;9.956;2024-02-16T06:10:18;10.35;;;4.20;;
12597;SDS011;6364;53.590;9.956;2024-02-16T06:12:43;8.10;;;3.58;;
12597;SDS011;6364;53.590;9.956;2024-02-16T06:15:09;6.13;;;3.53;;
12597;SDS011;6364;53.590;9.956;2024-02-16T06:17:34;11.52;;;3.72;;
12597;SDS011;6364;53.590;9.956;2024-02-16T06:19:59;9.02;;;3.58;;
12597;SDS011;6364;53.590;9.956;2024-02-16T06:22:25;7.43;;;3.65;;
12597;SDS011;6364;53.590;9.956;2024-02-16T06:24:50;8.60;;;3.58;;
12597;SDS011;6364;53.590;9.956;2024-02-16T06:27:16;12.90;;;4.18;;
12597;SDS011;6364;53.590;9.956;2024-02-16T06:29:41;6.78;;;3.92;;
12597;SDS011;6364;53.590;9.956;2024-02-16T06:32:07;7.25;;;3.30;;
12597;SDS011;6364;53.590;9.956;2024-02-16T06:34:33;7.38;;;3.95;;
12597;SDS011;6364;53.590;9.956;2024-02-16T06:36:58;7.32;;;3.92;;
12597;SDS011;6364;53.590;9.956;2024-02-16T06:39:24;7.25;;;3.88;;
12597;SDS011;6364;53.590;9.956;2024-02-16T06:41:49;8.05;;;4.05;;
12597;SDS011;6364;53.590;9.956;2024-02-16T06:46:44;8.85;;;4.28;;
12597;SDS011;6364;53.590;9.956;2024-02-16T06:49:09;8.68;;;3.60;;
12597;SDS011;6364;53.590;9.956;2024-02-16T06:51:35;12.13;;;3.80;;
12597;SDS011;6364;53.590;9.956;2024-02-16T06:54:01;7.45;;;3.75;;
12597;SDS011;6364;53.590;9.956;2024-02-16T06:56:27;12.43;;;3.83;;
12597;SDS011;6364;53.590;9.956;2024-02-16T06:58:52;11.20;;;4.07;;
12597;SDS011;6364;53.590;9.956;2024-02-16T07:01:18;10.70;;;4.47;;
12597;SDS011;6364;53.590;9.956;2024-02-16T07:03:44;9.00;;;4.47;;
12597;SDS011;6364;53.590;9.956;2024-02-16T07:06:10;9.35;;;3.95;;
12597;SDS011;6364;53.590;9.956;2024-02-16T07:08:36;9.38;;;3.92;;
12597;SDS011;6364;53.590;9.956;2024-02-16T07:11:02;10.43;;;4.20;;
12597;SDS011;6364;53.590;9.956;2024-02-16T07:13:28;11.10;;;4.45;;
12597;SDS011;6364;53.590;9.956;2024-02-16T07:15:54;12.52;;;4.30;;
12597;SDS011;6364;53.590;9.956;2024-02-16T07:18:19;11.45;;;4.00;;
12597;SDS011;6364;53.590;9.956;2024-02-16T07:20:44;13.30;;;4.50;;
12597;SDS011;6364;53.590;9.956;2024-02-16T07:23:10;8.02;;;3.85;;
12597;SDS011;6364;53.590;9.956;2024-02-16T07:25:35;8.43;;;3.80;;
12597;SDS011;6364;53.590;9.956;2024-02-16T07:28:01;8.05;;;3.83;;
12597;SDS011;6364;53.590;9.956;2024-02-16T07:30:26;12.82;;;4.28;;
12597;SDS011;6364;53.590;9.956;2024-02-16T07:32:51;10.85;;;3.97;;
12597;SDS011;6364;53.590;9.956;2024-02-16T07:35:17;7.05;;;3.55;;
12597;SDS011;6364;53.590;9.956;2024-02-16T07:37:43;7.72;;;3.90;;
12597;SDS011;6364;53.590;9.956;2024-02-16T07:40:09;6.75;;;3.53;;
12597;SDS011;6364;53.590;9.956;2024-02-16T07:42:40;6.18;;;3.83;;
12597;SDS011;6364;53.590;9.956;2024-02-16T07:45:07;5.20;;;3.55;;
12597;SDS011;6364;53.590;9.956;2024-02-16T07:47:34;10.15;;;3.65;;
12597;SDS011;6364;53.590;9.956;2024-02-16T07:49:59;6.30;;;3.38;;
12597;SDS011;6364;53.590;9.956;2024-02-16T07:52:24;10.60;;;3.67;;
12597;SDS011;6364;53.590;9.956;2024-02-16T07:54:50;9.15;;;3.58;;
12597;SDS011;6364;53.590;9.956;2024-02-16T07:57:16;11.82;;;4.00;;
12597;SDS011;6364;53.590;9.956;2024-02-16T07:59:42;6.07;;;3.50;;
12597;SDS011;6364;53.590;9.956;2024-02-16T08:02:07;6.20;;;3.20;;
12597;SDS011;6364;53.590;9.956;2024-02-16T08:04:34;10.07;;;3.70;;
12597;SDS011;6364;53.590;9.956;2024-02-16T08:06:59;8.10;;;3.50;;
12597;SDS011;6364;53.590;9.956;2024-02-16T08:09:26;9.55;;;3.85;;
12597;SDS011;6364;53.590;9.956;2024-02-16T08:11:51;7.15;;;3.97;;
12597;SDS011;6364;53.590;9.956;2024-02-16T08:14:17;13.05;;;4.13;;
12597;SDS011;6364;53.590;9.956;2024-02-16T08:16:42;9.02;;;3.95;;
12597;SDS011;6364;53.590;9.956;2024-02-16T08:19:07;9.63;;;3.97;;
12597;SDS011;6364;53.590;9.956;2024-02-16T08:21:33;7.70;;;3.50;;
12597;SDS011;6364;53.590;9.956;2024-02-16T08:23:58;9.35;;;3.90;;
12597;SDS011;6364;53.590;9.956;2024-02-16T08:26:23;10.20;;;3.92;;
12597;SDS011;6364;53.590;9.956;2024-02-16T08:28:49;7.80;;;3.38;;
12597;SDS011;6364;53.590;9.956;2024-02-16T08:31:15;12.45;;;3.60;;
12597;SDS011;6364;53.590;9.956;2024-02-16T08:33:42;8.95;;;3.55;;
12597;SDS011;6364;53.590;9.956;2024-02-16T08:36:08;6.05;;;3.28;;
12597;SDS011;6364;53.590;9.956;2024-02-16T08:38:33;9.05;;;3.40;;
12597;SDS011;6364;53.590;9.956;2024-02-16T08:40:58;5.60;;;3.33;;
12597;SDS011;6364;53.590;9.956;2024-02-16T08:43:24;9.63;;;3.78;;
12597;SDS011;6364;53.590;9.956;2024-02-16T08:45:50;8.25;;;4.18;;
12597;SDS011;6364;53.590;9.956;2024-02-16T08:48:16;8.88;;;3.40;;
12597;SDS011;6364;53.590;9.956;2024-02-16T08:50:41;5.78;;;3.50;;
12597;SDS011;6364;53.590;9.956;2024-02-16T08:53:06;7.13;;;3.65;;
12597;SDS011;6364;53.590;9.956;2024-02-16T08:55:35;7.57;;;3.85;;
12597;SDS011;6364;53.590;9.956;2024-02-16T08:58:00;9.30;;;3.80;;
12597;SDS011;6364;53.590;9.956;2024-02-16T09:00:25;8.70;;;3.60;;
12597;SDS011;6364;53.590;9.956;2024-02-16T09:02:52;6.00;;;3.45;;
12597;SDS011;6364;53.590;9.956;2024-02-16T09:05:18;8.93;;;3.65;;
12597;SDS011;6364;53.590;9.956;2024-02-16T09:07:44;8.52;;;4.38;;
12597;SDS011;6364;53.590;9.956;2024-02-16T09:10:09;9.65;;;3.47;;
12597;SDS011;6364;53.590;9.956;2024-02-16T09:12:35;9.73;;;3.67;;
12597;SDS011;6364;53.590;9.956;2024-02-16T09:15:00;8.50;;;3.20;;
12597;SDS011;6364;53.590;9.956;2024-02-16T09:17:26;8.60;;;3.83;;
12597;SDS011;6364;53.590;9.956;2024-02-16T09:19:51;12.55;;;3.65;;
12597;SDS011;6364;53.590;9.956;2024-02-16T09:22:17;6.82;;;3.45;;
12597;SDS011;6364;53.590;9.956;2024-02-16T09:24:42;13.50;;;4.32;;
12597;SDS011;6364;53.590;9.956;2024-02-16T09:27:11;6.35;;;3.60;;
12597;SDS011;6364;53.590;9.956;2024-02-16T09:29:37;7.93;;;3.40;;
12597;SDS011;6364;53.590;9.956;2024-02-16T09:32:03;9.00;;;3.40;;
12597;SDS011;6364;53.590;9.956;2024-02-16T09:34:28;11.48;;;3.90;;
12597;SDS011;6364;53.590;9.956;2024-02-16T09:36:54;6.85;;;3.30;;
12597;SDS011;6364;53.590;9.956;2024-02-16T09:39:19;7.85;;;3.38;;
12597;SDS011;6364;53.590;9.956;2024-02-16T09:41:44;7.80;;;3.42;;
12597;SDS011;6364;53.590;9.956;2024-02-16T09:44:14;10.18;;;3.70;;
12597;SDS011;6364;53.590;9.956;2024-02-16T09:46:39;9.77;;;3.55;;
12597;SDS011;6364;53.590;9.956;2024-02-16T09:49:05;7.00;;;3.38;;
12597;SDS011;6364;53.590;9.956;2024-02-16T09:51:30;6.38;;;3.30;;
12597;SDS011;6364;53.590;9.956;2024-02-16T09:53:56;6.85;;;3.83;;
12597;SDS011;6364;53.590;9.956;2024-02-16T09:56:21;7.60;;;3.42;;
12597;SDS011;6364;53.590;9.956;2024-02-16T09:58:47;11.45;;;3.70;;
12597;SDS011;6364;53.590;9.956;2024-02-16T10:01:19;8.55;;;3.65;;
12597;SDS011;6364;53.590;9.956;2024-02-16T10:03:45;8.10;;;3.70;;
12597;SDS011;6364;53.590;9.956;2024-02-16T10:06:11;7.72;;;3.65;;
12597;SDS011;6364;53.590;9.956;2024-02-16T10:08:55;11.13;;;3.97;;
12597;SDS011;6364;53.590;9.956;2024-02-16T10:11:25;10.80;;;3.80;;
12597;SDS011;6364;53.590;9.956;2024-02-16T10:16:24;6.47;;;3.33;;
12597;SDS011;6364;53.590;9.956;2024-02-16T10:18:49;8.55;;;3.95;;
12597;SDS011;6364;53.590;9.956;2024-02-16T10:21:28;9.43;;;3.25;;
12597;SDS011;6364;53.590;9.956;2024-02-16T10:24:01;4.45;;;3.22;;
12597;SDS011;6364;53.590;9.956;2024-02-16T10:26:32;6.68;;;3.60;;
12597;SDS011;6364;53.590;9.956;2024-02-16T10:29:02;5.68;;;3.22;;
12597;SDS011;6364;53.590;9.956;2024-02-16T10:31:28;9.50;;;3.70;;
12597;SDS011;6364;53.590;9.956;2024-02-16T10:33:56;7.88;;;3.30;;
12597;SDS011;6364;53.590;9.956;2024-02-16T10:36:22;5.75;;;3.22;;
12597;SDS011;6364;53.590;9.956;2024-02-16T10:38:50;7.43;;;3.30;;
12597;SDS011;6364;53.590;9.956;2024-02-16T10:41:16;6.57;;;3.88;;
12597;SDS011;6364;53.590;9.956;2024-02-16T10:43:43;7.68;;;4.38;;
12597;SDS011;6364;53.590;9.956;2024-02-16T10:46:13;9.85;;;4.85;;
12597;SDS011;6364;53.590;9.956;2024-02-16T10:48:41;9.38;;;3.95;;
12597;SDS011;6364;53.590;9.956;2024-02-16T10:51:06;8.25;;;4.40;;
12597;SDS011;6364;53.590;9.956;2024-02-16T10:53:33;8.75;;;3.50;;
12597;SDS011;6364;53.590;9.956;2024-02-16T10:55:59;4.60;;;2.67;;
12597;SDS011;6364;53.590;9.956;2024-02-16T10:58:26;6.75;;;2.50;;
12597;SDS011;6364;53.590;9.956;2024-02-16T11:00:53;7.97;;;2.83;;
12597;SDS011;6364;53.590;9.956;2024-02-16T11:03:23;7.00;;;2.75;;
12597;SDS011;6364;53.590;9.956;2024-02-16T11:05:49;4.45;;;2.20;;
12597;SDS011;6364;53.590;9.956;2024-02-16T11:08:16;5.43;;;2.30;;
12597;SDS011;6364;53.590;9.956;2024-02-16T11:10:58;4.57;;;2.63;;
12597;SDS011;6364;53.590;9.956;2024-02-16T11:13:27;4.85;;;1.92;;
12597;SDS011;6364;53.590;9.956;2024-02-16T11:16:05;5.68;;;2.60;;
12597;SDS011;6364;53.590;9.956;2024-02-16T11:18:36;5.88;;;2.30;;
12597;SDS011;6364;53.590;9.956;2024-02-16T11:21:02;4.75;;;2.20;;
12597;SDS011;6364;53.590;9.956;2024-02-16T11:23:31;4.25;;;2.33;;
12597;SDS011;6364;53.590;9.956;2024-02-16T11:26:00;4.95;;;2.28;;
12597;SDS011;6364;53.590;9.956;2024-02-16T11:28:28;6.55;;;2.90;;
12597;SDS011;6364;53.590;9.956;2024-02-16T11:30:56;6.22;;;2.90;;
12597;SDS011;6364;53.590;9.956;2024-02-16T11:33:21;4.90;;;2.17;;
12597;SDS011;6364;53.590;9.956;2024-02-16T11:35:57;5.22;;;2.30;;
12597;SDS011;6364;53.590;9.956;2024-02-16T11:38:26;8.27;;;3.13;;
12597;SDS011;6364;53.590;9.956;2024-02-16T11:40:56;4.70;;;2.50;;
12597;SDS011;6364;53.590;9.956;2024-02-16T11:43:22;4.95;;;2.60;;
12597;SDS011;6364;53.590;9.956;2024-02-16T11:45:48;5.78;;;2.53;;
12597;SDS011;6364;53.590;9.956;2024-02-16T11:48:18;5.53;;;2.58;;
12597;SDS011;6364;53.590;9.956;2024-02-16T11:50:47;5.50;;;2.95;;
12597;SDS011;6364;53.590;9.956;2024-02-16T11:53:19;7.47;;;2.92;;
12597;SDS011;6364;53.590;9.956;2024-02-16T11:55:48;5.78;;;2.78;;
12597;SDS011;6364;53.590;9.956;2024-02-16T11:58:15;4.15;;;2.42;;
12597;SDS011;6364;53.590;9.956;2024-02-16T12:00:42;3.50;;;2.70;;
12597;SDS011;6364;53.590;9.956;2024-02-16T12:03:07;6.13;;;3.05;;
12597;SDS011;6364;53.590;9.956;2024-02-16T12:05:32;8.90;;;2.92;;
12597;SDS011;6364;53.590;9.956;2024-02-16T12:07:58;5.38;;;2.95;;
12597;SDS011;6364;53.590;9.956;2024-02-16T12:10:24;9.05;;;2.63;;
12597;SDS011;6364;53.590;9.956;2024-02-16T12:12:50;4.53;;;2.75;;
12597;SDS011;6364;53.590;9.956;2024-02-16T12:15:15;7.90;;;2.83;;
12597;SDS011;6364;53.590;9.956;2024-02-16T12:17:42;7.13;;;3.38;;
12597;SDS011;6364;53.590;9.956;2024-02-16T12:20:14;7.47;;;3.28;;
12597;SDS011;6364;53.590;9.956;2024-02-16T12:22:39;6.38;;;3.15;;
12597;SDS011;6364;53.590;9.956;2024-02-16T12:25:05;6.03;;;2.90;;
12597;SDS011;6364;53.590;9.956;2024-02-16T12:27:31;5.57;;;3.30;;
12597;SDS011;6364;53.590;9.956;2024-02-16T12:29:56;10.48;;;3.80;;
12597;SDS011;6364;53.590;9.956;2024-02-16T12:32:22;8.00;;;3.70;;
12597;SDS011;6364;53.590;9.956;2024-02-16T12:34:47;7.45;;;3.40;;
12597;SDS011;6364;53.590;9.956;2024-02-16T12:37:12;8.90;;;3.58;;
12597;SDS011;6364;53.590;9.956;2024-02-16T12:39:38;7.10;;;3.67;;
12597;SDS011;6364;53.590;9.956;2024-02-16T12:42:04;7.32;;;3.55;;
12597;SDS011;6364;53.590;9.956;2024-02-16T12:44:30;8.07;;;3.55;;
12597;SDS011;6364;53.590;9.956;2024-02-16T12:46:55;11.82;;;3.85;;
12597;SDS011;6364;53.590;9.956;2024-02-16T12:49:21;9.63;;;3.85;;
12597;SDS011;6364;53.590;9.956;2024-02-16T12:51:50;7.38;;;3.42;;
12597;SDS011;6364;53.590;9.956;2024-02-16T12:54:16;7.20;;;3.30;;
12597;SDS011;6364;53.590;9.956;2024-02-16T12:56:44;9.10;;;3.67;;
12597;SDS011;6364;53.590;9.956;2024-02-16T12:59:10;6.60;;;3.67;;
12597;SDS011;6364;53.590;9.956;2024-02-16T13:01:36;7.03;;;3.47;;
12597;SDS011;6364;53.590;9.956;2024-02-16T13:04:02;7.97;;;3.53;;
12597;SDS011;6364;53.590;9.956;2024-02-16T13:06:27;9.48;;;4.07;;
12597;SDS011;6364;53.590;9.956;2024-02-16T13:08:53;5.47;;;3.80;;
12597;SDS011;6364;53.590;9.956;2024-02-16T13:11:18;5.28;;;3.40;;
12597;SDS011;6364;53.590;9.956;2024-02-16T13:13:43;7.90;;;3.70;;
12597;SDS011;6364;53.590;9.956;2024-02-16T13:16:09;8.63;;;4.80;;
12597;SDS011;6364;53.590;9.956;2024-02-16T13:18:34;6.60;;;4.05;;
12597;SDS011;6364;53.590;9.956;2024-02-16T13:20:59;6.40;;;3.50;;
12597;SDS011;6364;53.590;9.956;2024-02-16T13:23:25;5.25;;;3.50;;
12597;SDS011;6364;53.590;9.956;2024-02-16T13:25:50;6.63;;;3.83;;
12597;SDS011;6364;53.590;9.956;2024-02-16T13:28:16;9.88;;;4.20;;
12597;SDS011;6364;53.590;9.956;2024-02-16T13:30:41;6.53;;;3.60;;
12597;SDS011;6364;53.590;9.956;2024-02-16T13:33:07;6.85;;;3.97;;
12597;SDS011;6364;53.590;9.956;2024-02-16T13:35:34;8.18;;;3.88;;
12597;SDS011;6364;53.590;9.956;2024-02-16T13:38:00;11.75;;;4.40;;
12597;SDS011;6364;53.590;9.956;2024-02-16T13:40:26;9.27;;;4.03;;
12597;SDS011;6364;53.590;9.956;2024-02-16T13:42:52;7.07;;;4.07;;
12597;SDS011;6364;53.590;9.956;2024-02-16T13:45:20;12.02;;;4.40;;
12597;SDS011;6364;53.590;9.956;2024-02-16T13:47:45;7.90;;;4.07;;
12597;SDS011;6364;53.590;9.956;2024-02-16T13:50:11;11.40;;;4.35;;
12597;SDS011;6364;53.590;9.956;2024-02-16T13:52:36;11.30;;;4.25;;
12597;SDS011;6364;53.590;9.956;2024-02-16T13:55:01;6.95;;;4.32;;
12597;SDS011;6364;53.590;9.956;2024-02-16T13:57:27;6.68;;;4.20;;
12597;SDS011;6364;53.590;9.956;2024-02-16T13:59:53;8.82;;;4.50;;
12597;SDS011;6364;53.590;9.956;2024-02-16T14:02:18;11.30;;;4.72;;
12597;SDS011;6364;53.590;9.956;2024-02-16T14:04:43;8.90;;;4.70;;
12597;SDS011;6364;53.590;9.956;2024-02-16T14:07:09;9.23;;;4.40;;
12597;SDS011;6364;53.590;9.956;2024-02-16T14:09:35;7.95;;;4.43;;
12597;SDS011;6364;53.590;9.956;2024-02-16T14:12:00;9.68;;;4.90;;
12597;SDS011;6364;53.590;9.956;2024-02-16T14:14:25;8.43;;;4.55;;
12597;SDS011;6364;53.590;9.956;2024-02-16T14:16:51;9.35;;;4.65;;
12597;SDS011;6364;53.590;9.956;2024-02-16T14:19:16;12.32;;;5.25;;
12597;SDS011;6364;53.590;9.956;2024-02-16T14:21:45;8.95;;;5.20;;
12597;SDS011;6364;53.590;9.956;2024-02-16T14:24:12;8.32;;;4.78;;
12597;SDS011;6364;53.590;9.956;2024-02-16T14:26:41;10.98;;;5.15;;
12597;SDS011;6364;53.590;9.956;2024-02-16T14:29:08;10.50;;;5.32;;
12597;SDS011;6364;53.590;9.956;2024-02-16T14:31:33;10.45;;;4.78;;
12597;SDS011;6364;53.590;9.956;2024-02-16T14:33:59;12.15;;;5.10;;
12597;SDS011;6364;53.590;9.956;2024-02-16T14:36:24;12.75;;;6.00;;
12597;SDS011;6364;53.590;9.956;2024-02-16T14:38:50;8.98;;;5.55;;
12597;SDS011;6364;53.590;9.956;2024-02-16T14:41:15;11.07;;;5.38;;
12597;SDS011;6364;53.590;9.956;2024-02-16T14:43:41;8.48;;;5.40;;
12597;SDS011;6364;53.590;9.956;2024-02-16T14:46:07;11.85;;;5.50;;
12597;SDS011;6364;53.590;9.956;2024-02-16T14:48:34;9.63;;;5.97;;
12597;SDS011;6364;53.590;9.956;2024-02-16T14:50:59;12.93;;;5.65;;
12597;SDS011;6364;53.590;9.956;2024-02-16T14:53:24;13.00;;;6.10;;
12597;SDS011;6364;53.590;9.956;2024-02-16T14:55:50;12.75;;;6.75;;